Terminal Aerodrome Forecast
Issued by NWS Tulsa, OK

Home | Current Version | Previous Version | Text Only | Print | Product List | Glossary On
Versions: 1 2 3 4 5 6 7 8 9 10 11 12 13
000
FTUS44 KTSA 310520
TAFTUL
TAF
KTUL 310520Z 3106/0106 13005KT P6SM SCT050 SCT250
     FM311000 15004KT P6SM SCT010 BKN025
     FM311200 16004KT 5SM BR BKN015
     FM311500 17005KT P6SM SCT015 BKN025
     FM311700 17008KT P6SM BKN045 PROB30 3118/3124 5SM -TSRA
      BKN030CB
     FM010000 19006KT P6SM VCTS BKN080CB=

USA.gov is the U.S. government's official web portal to all federal, state and local government web resources and services.